sensor_id;sensor_type;location;lat;lon;timestamp;P1;durP1;ratioP1;P2;durP2;ratioP2
4652;SDS011;9900;48.738;9.306;2023-05-29T00:02:26;10.40;;;5.80;;
4652;SDS011;9900;48.738;9.306;2023-05-29T00:04:54;13.20;;;6.57;;
4652;SDS011;9900;48.738;9.306;2023-05-29T00:07:23;14.53;;;6.03;;
4652;SDS011;9900;48.738;9.306;2023-05-29T00:09:52;11.83;;;6.20;;
4652;SDS011;9900;48.738;9.306;2023-05-29T00:12:21;10.40;;;5.90;;
4652;SDS011;9900;48.738;9.306;2023-05-29T00:14:51;11.53;;;5.40;;
4652;SDS011;9900;48.738;9.306;2023-05-29T00:17:20;12.03;;;5.87;;
4652;SDS011;9900;48.738;9.306;2023-05-29T00:19:49;10.40;;;5.50;;
4652;SDS011;9900;48.738;9.306;2023-05-29T00:22:17;8.63;;;5.00;;
4652;SDS011;9900;48.738;9.306;2023-05-29T00:24:46;16.03;;;6.17;;
4652;SDS011;9900;48.738;9.306;2023-05-29T00:27:15;12.50;;;5.90;;
4652;SDS011;9900;48.738;9.306;2023-05-29T00:29:45;10.40;;;5.17;;
4652;SDS011;9900;48.738;9.306;2023-05-29T00:32:15;11.60;;;5.30;;
4652;SDS011;9900;48.738;9.306;2023-05-29T00:34:43;13.20;;;5.80;;
4652;SDS011;9900;48.738;9.306;2023-05-29T00:37:12;8.60;;;5.00;;
4652;SDS011;9900;48.738;9.306;2023-05-29T00:39:41;10.77;;;5.47;;
4652;SDS011;9900;48.738;9.306;2023-05-29T00:42:10;10.13;;;5.83;;
4652;SDS011;9900;48.738;9.306;2023-05-29T00:44:39;8.40;;;5.70;;
4652;SDS011;9900;48.738;9.306;2023-05-29T00:47:07;10.57;;;4.97;;
4652;SDS011;9900;48.738;9.306;2023-05-29T00:49:37;9.17;;;5.40;;
4652;SDS011;9900;48.738;9.306;2023-05-29T00:52:06;13.50;;;5.60;;
4652;SDS011;9900;48.738;9.306;2023-05-29T00:54:35;9.87;;;5.33;;
4652;SDS011;9900;48.738;9.306;2023-05-29T00:57:04;10.60;;;6.00;;
4652;SDS011;9900;48.738;9.306;2023-05-29T00:59:34;9.70;;;5.40;;
4652;SDS011;9900;48.738;9.306;2023-05-29T01:02:03;10.53;;;5.50;;
4652;SDS011;9900;48.738;9.306;2023-05-29T01:04:32;10.13;;;5.50;;
4652;SDS011;9900;48.738;9.306;2023-05-29T01:07:03;9.50;;;6.20;;
4652;SDS011;9900;48.738;9.306;2023-05-29T01:09:32;11.90;;;5.90;;
4652;SDS011;9900;48.738;9.306;2023-05-29T01:12:08;9.83;;;6.33;;
4652;SDS011;9900;48.738;9.306;2023-05-29T01:14:44;9.90;;;5.57;;
4652;SDS011;9900;48.738;9.306;2023-05-29T01:17:17;9.50;;;5.67;;
4652;SDS011;9900;48.738;9.306;2023-05-29T01:19:59;10.60;;;5.67;;
4652;SDS011;9900;48.738;9.306;2023-05-29T01:23:07;14.63;;;6.00;;
4652;SDS011;9900;48.738;9.306;2023-05-29T01:25:46;9.70;;;5.60;;
4652;SDS011;9900;48.738;9.306;2023-05-29T01:28:27;10.73;;;6.27;;
4652;SDS011;9900;48.738;9.306;2023-05-29T01:31:00;17.13;;;5.73;;
4652;SDS011;9900;48.738;9.306;2023-05-29T01:33:29;12.20;;;5.67;;
4652;SDS011;9900;48.738;9.306;2023-05-29T01:35:58;12.50;;;5.83;;
4652;SDS011;9900;48.738;9.306;2023-05-29T01:38:27;10.97;;;5.77;;
4652;SDS011;9900;48.738;9.306;2023-05-29T01:40:55;11.93;;;6.10;;
4652;SDS011;9900;48.738;9.306;2023-05-29T01:43:24;13.47;;;5.80;;
4652;SDS011;9900;48.738;9.306;2023-05-29T01:45:54;9.73;;;5.90;;
4652;SDS011;9900;48.738;9.306;2023-05-29T01:48:23;8.70;;;5.63;;
4652;SDS011;9900;48.738;9.306;2023-05-29T01:50:52;11.07;;;5.60;;
4652;SDS011;9900;48.738;9.306;2023-05-29T01:53:23;10.17;;;5.80;;
4652;SDS011;9900;48.738;9.306;2023-05-29T01:55:51;12.23;;;6.50;;
4652;SDS011;9900;48.738;9.306;2023-05-29T01:58:20;8.90;;;5.50;;
4652;SDS011;9900;48.738;9.306;2023-05-29T02:00:51;14.30;;;6.60;;
4652;SDS011;9900;48.738;9.306;2023-05-29T02:03:20;8.53;;;5.67;;
4652;SDS011;9900;48.738;9.306;2023-05-29T02:05:49;10.70;;;5.93;;
4652;SDS011;9900;48.738;9.306;2023-05-29T02:08:18;12.00;;;6.50;;
4652;SDS011;9900;48.738;9.306;2023-05-29T02:10:46;6.97;;;5.23;;
4652;SDS011;9900;48.738;9.306;2023-05-29T02:13:15;13.50;;;6.27;;
4652;SDS011;9900;48.738;9.306;2023-05-29T02:15:44;8.80;;;6.13;;
4652;SDS011;9900;48.738;9.306;2023-05-29T02:18:15;9.97;;;6.00;;
4652;SDS011;9900;48.738;9.306;2023-05-29T02:20:44;11.87;;;6.23;;
4652;SDS011;9900;48.738;9.306;2023-05-29T02:23:14;10.33;;;6.07;;
4652;SDS011;9900;48.738;9.306;2023-05-29T02:25:43;11.33;;;6.53;;
4652;SDS011;9900;48.738;9.306;2023-05-29T02:28:12;9.20;;;5.53;;
4652;SDS011;9900;48.738;9.306;2023-05-29T02:30:40;9.43;;;6.10;;
4652;SDS011;9900;48.738;9.306;2023-05-29T02:33:09;9.10;;;6.07;;
4652;SDS011;9900;48.738;9.306;2023-05-29T02:35:39;14.87;;;6.27;;
4652;SDS011;9900;48.738;9.306;2023-05-29T02:38:08;9.10;;;5.60;;
4652;SDS011;9900;48.738;9.306;2023-05-29T02:40:37;9.60;;;5.27;;
4652;SDS011;9900;48.738;9.306;2023-05-29T02:43:05;12.97;;;6.70;;
4652;SDS011;9900;48.738;9.306;2023-05-29T02:45:34;9.10;;;5.70;;
4652;SDS011;9900;48.738;9.306;2023-05-29T02:48:03;8.67;;;5.03;;
4652;SDS011;9900;48.738;9.306;2023-05-29T02:50:32;9.73;;;6.63;;
4652;SDS011;9900;48.738;9.306;2023-05-29T02:53:02;11.60;;;6.33;;
4652;SDS011;9900;48.738;9.306;2023-05-29T02:55:30;10.53;;;5.20;;
4652;SDS011;9900;48.738;9.306;2023-05-29T02:58:03;8.67;;;5.20;;
4652;SDS011;9900;48.738;9.306;2023-05-29T03:00:31;10.17;;;6.37;;
4652;SDS011;9900;48.738;9.306;2023-05-29T03:03:00;11.27;;;6.33;;
4652;SDS011;9900;48.738;9.306;2023-05-29T03:05:30;14.13;;;6.90;;
4652;SDS011;9900;48.738;9.306;2023-05-29T03:07:59;12.70;;;7.13;;
4652;SDS011;9900;48.738;9.306;2023-05-29T03:10:29;9.03;;;6.43;;
4652;SDS011;9900;48.738;9.306;2023-05-29T03:12:57;13.87;;;6.73;;
4652;SDS011;9900;48.738;9.306;2023-05-29T03:15:26;12.17;;;6.83;;
4652;SDS011;9900;48.738;9.306;2023-05-29T03:17:55;9.07;;;5.90;;
4652;SDS011;9900;48.738;9.306;2023-05-29T03:20:24;12.23;;;7.50;;
4652;SDS011;9900;48.738;9.306;2023-05-29T03:22:53;10.07;;;7.00;;
4652;SDS011;9900;48.738;9.306;2023-05-29T03:25:22;9.30;;;5.87;;
4652;SDS011;9900;48.738;9.306;2023-05-29T03:27:52;10.13;;;5.80;;
4652;SDS011;9900;48.738;9.306;2023-05-29T03:30:21;12.97;;;6.70;;
4652;SDS011;9900;48.738;9.306;2023-05-29T03:32:49;13.63;;;5.97;;
4652;SDS011;9900;48.738;9.306;2023-05-29T03:35:18;10.53;;;6.50;;
4652;SDS011;9900;48.738;9.306;2023-05-29T03:37:47;10.10;;;6.20;;
4652;SDS011;9900;48.738;9.306;2023-05-29T03:40:15;15.47;;;6.40;;
4652;SDS011;9900;48.738;9.306;2023-05-29T03:42:44;9.23;;;5.77;;
4652;SDS011;9900;48.738;9.306;2023-05-29T03:45:14;9.83;;;5.40;;
4652;SDS011;9900;48.738;9.306;2023-05-29T03:47:43;10.33;;;5.63;;
4652;SDS011;9900;48.738;9.306;2023-05-29T03:50:12;10.23;;;5.40;;
4652;SDS011;9900;48.738;9.306;2023-05-29T03:52:42;8.57;;;5.90;;
4652;SDS011;9900;48.738;9.306;2023-05-29T03:55:11;9.13;;;5.33;;
4652;SDS011;9900;48.738;9.306;2023-05-29T03:57:41;10.23;;;5.90;;
4652;SDS011;9900;48.738;9.306;2023-05-29T04:00:11;10.53;;;6.10;;
4652;SDS011;9900;48.738;9.306;2023-05-29T04:02:41;13.47;;;6.40;;
4652;SDS011;9900;48.738;9.306;2023-05-29T04:05:10;10.27;;;5.53;;
4652;SDS011;9900;48.738;9.306;2023-05-29T04:07:41;13.10;;;6.07;;
4652;SDS011;9900;48.738;9.306;2023-05-29T04:10:10;7.47;;;5.30;;
4652;SDS011;9900;48.738;9.306;2023-05-29T04:12:38;14.30;;;5.60;;
4652;SDS011;9900;48.738;9.306;2023-05-29T04:15:08;13.10;;;6.10;;
4652;SDS011;9900;48.738;9.306;2023-05-29T04:17:37;9.87;;;5.70;;
4652;SDS011;9900;48.738;9.306;2023-05-29T04:20:07;7.40;;;5.77;;
4652;SDS011;9900;48.738;9.306;2023-05-29T04:22:37;8.90;;;5.50;;
4652;SDS011;9900;48.738;9.306;2023-05-29T04:25:06;10.27;;;5.47;;
4652;SDS011;9900;48.738;9.306;2023-05-29T04:27:35;10.00;;;5.80;;
4652;SDS011;9900;48.738;9.306;2023-05-29T04:30:05;9.90;;;5.53;;
4652;SDS011;9900;48.738;9.306;2023-05-29T04:32:34;10.00;;;5.40;;
4652;SDS011;9900;48.738;9.306;2023-05-29T04:35:03;10.73;;;5.97;;
4652;SDS011;9900;48.738;9.306;2023-05-29T04:37:34;11.80;;;5.70;;
4652;SDS011;9900;48.738;9.306;2023-05-29T04:40:06;7.50;;;6.03;;
4652;SDS011;9900;48.738;9.306;2023-05-29T04:42:36;9.00;;;5.50;;
4652;SDS011;9900;48.738;9.306;2023-05-29T04:45:07;10.63;;;6.10;;
4652;SDS011;9900;48.738;9.306;2023-05-29T04:47:37;10.97;;;6.93;;
4652;SDS011;9900;48.738;9.306;2023-05-29T04:50:10;10.23;;;6.30;;
4652;SDS011;9900;48.738;9.306;2023-05-29T04:52:40;13.70;;;7.57;;
4652;SDS011;9900;48.738;9.306;2023-05-29T04:55:10;10.03;;;6.50;;
4652;SDS011;9900;48.738;9.306;2023-05-29T04:57:39;8.83;;;5.33;;
4652;SDS011;9900;48.738;9.306;2023-05-29T05:00:08;13.53;;;6.87;;
4652;SDS011;9900;48.738;9.306;2023-05-29T05:02:41;8.10;;;5.47;;
4652;SDS011;9900;48.738;9.306;2023-05-29T05:05:11;11.23;;;6.50;;
4652;SDS011;9900;48.738;9.306;2023-05-29T05:07:41;12.13;;;6.27;;
4652;SDS011;9900;48.738;9.306;2023-05-29T05:10:10;13.00;;;6.80;;
4652;SDS011;9900;48.738;9.306;2023-05-29T05:12:39;11.10;;;6.50;;
4652;SDS011;9900;48.738;9.306;2023-05-29T05:15:08;10.63;;;6.10;;
4652;SDS011;9900;48.738;9.306;2023-05-29T05:17:38;11.23;;;6.33;;
4652;SDS011;9900;48.738;9.306;2023-05-29T05:20:07;11.93;;;6.57;;
4652;SDS011;9900;48.738;9.306;2023-05-29T05:22:37;10.57;;;5.90;;
4652;SDS011;9900;48.738;9.306;2023-05-29T05:25:07;12.10;;;6.50;;
4652;SDS011;9900;48.738;9.306;2023-05-29T05:27:36;10.30;;;6.13;;
4652;SDS011;9900;48.738;9.306;2023-05-29T05:30:07;10.60;;;6.40;;
4652;SDS011;9900;48.738;9.306;2023-05-29T05:32:36;8.53;;;6.17;;
4652;SDS011;9900;48.738;9.306;2023-05-29T05:35:05;9.97;;;5.70;;
4652;SDS011;9900;48.738;9.306;2023-05-29T05:37:35;15.60;;;6.87;;
4652;SDS011;9900;48.738;9.306;2023-05-29T05:40:05;10.13;;;6.57;;
4652;SDS011;9900;48.738;9.306;2023-05-29T05:42:37;14.17;;;6.87;;
4652;SDS011;9900;48.738;9.306;2023-05-29T05:45:06;10.03;;;6.20;;
4652;SDS011;9900;48.738;9.306;2023-05-29T05:47:36;7.93;;;6.30;;
4652;SDS011;9900;48.738;9.306;2023-05-29T05:50:05;10.83;;;6.63;;
4652;SDS011;9900;48.738;9.306;2023-05-29T05:52:34;11.53;;;6.60;;
4652;SDS011;9900;48.738;9.306;2023-05-29T05:55:03;11.53;;;6.23;;
4652;SDS011;9900;48.738;9.306;2023-05-29T05:57:34;14.30;;;7.13;;
4652;SDS011;9900;48.738;9.306;2023-05-29T06:00:03;10.30;;;6.17;;
4652;SDS011;9900;48.738;9.306;2023-05-29T06:02:34;10.40;;;5.63;;
4652;SDS011;9900;48.738;9.306;2023-05-29T06:05:03;11.10;;;5.73;;
4652;SDS011;9900;48.738;9.306;2023-05-29T06:07:34;10.97;;;6.00;;
4652;SDS011;9900;48.738;9.306;2023-05-29T06:10:04;13.90;;;5.40;;
4652;SDS011;9900;48.738;9.306;2023-05-29T06:12:34;8.03;;;5.83;;
4652;SDS011;9900;48.738;9.306;2023-05-29T06:15:03;12.77;;;5.67;;
4652;SDS011;9900;48.738;9.306;2023-05-29T06:17:34;10.00;;;5.00;;
4652;SDS011;9900;48.738;9.306;2023-05-29T06:20:03;10.27;;;6.20;;
4652;SDS011;9900;48.738;9.306;2023-05-29T06:22:38;12.47;;;5.77;;
4652;SDS011;9900;48.738;9.306;2023-05-29T06:25:07;9.70;;;5.40;;
4652;SDS011;9900;48.738;9.306;2023-05-29T06:27:38;10.97;;;5.50;;
4652;SDS011;9900;48.738;9.306;2023-05-29T06:30:08;9.83;;;5.57;;
4652;SDS011;9900;48.738;9.306;2023-05-29T06:32:37;12.63;;;6.07;;
4652;SDS011;9900;48.738;9.306;2023-05-29T06:35:06;14.13;;;5.03;;
4652;SDS011;9900;48.738;9.306;2023-05-29T06:37:35;7.17;;;5.10;;
4652;SDS011;9900;48.738;9.306;2023-05-29T06:40:04;10.47;;;5.67;;
4652;SDS011;9900;48.738;9.306;2023-05-29T06:42:34;9.27;;;4.87;;
4652;SDS011;9900;48.738;9.306;2023-05-29T06:45:04;12.10;;;5.27;;
4652;SDS011;9900;48.738;9.306;2023-05-29T06:47:34;10.63;;;4.97;;
4652;SDS011;9900;48.738;9.306;2023-05-29T06:50:03;11.73;;;5.40;;
4652;SDS011;9900;48.738;9.306;2023-05-29T06:52:32;11.77;;;5.10;;
4652;SDS011;9900;48.738;9.306;2023-05-29T06:55:01;9.17;;;5.03;;
4652;SDS011;9900;48.738;9.306;2023-05-29T06:57:30;8.57;;;5.40;;
4652;SDS011;9900;48.738;9.306;2023-05-29T06:59:59;9.27;;;5.43;;
4652;SDS011;9900;48.738;9.306;2023-05-29T07:02:29;13.50;;;4.83;;
4652;SDS011;9900;48.738;9.306;2023-05-29T07:04:58;9.10;;;4.93;;
4652;SDS011;9900;48.738;9.306;2023-05-29T07:07:26;12.17;;;5.27;;
4652;SDS011;9900;48.738;9.306;2023-05-29T07:09:55;8.33;;;5.17;;
4652;SDS011;9900;48.738;9.306;2023-05-29T07:12:24;9.63;;;5.40;;
4652;SDS011;9900;48.738;9.306;2023-05-29T07:14:52;8.83;;;5.20;;
4652;SDS011;9900;48.738;9.306;2023-05-29T07:17:21;11.30;;;5.00;;
4652;SDS011;9900;48.738;9.306;2023-05-29T07:19:52;10.60;;;4.73;;
4652;SDS011;9900;48.738;9.306;2023-05-29T07:22:21;8.90;;;5.27;;
4652;SDS011;9900;48.738;9.306;2023-05-29T07:24:50;20.03;;;5.30;;
4652;SDS011;9900;48.738;9.306;2023-05-29T07:27:18;8.33;;;5.00;;
4652;SDS011;9900;48.738;9.306;2023-05-29T07:29:47;8.77;;;4.37;;
4652;SDS011;9900;48.738;9.306;2023-05-29T07:32:16;5.50;;;3.87;;
4652;SDS011;9900;48.738;9.306;2023-05-29T07:34:44;9.40;;;4.40;;
4652;SDS011;9900;48.738;9.306;2023-05-29T07:37:16;9.07;;;4.80;;
4652;SDS011;9900;48.738;9.306;2023-05-29T07:39:46;7.33;;;4.17;;
4652;SDS011;9900;48.738;9.306;2023-05-29T07:42:14;7.50;;;4.10;;
4652;SDS011;9900;48.738;9.306;2023-05-29T07:44:44;7.50;;;4.40;;
4652;SDS011;9900;48.738;9.306;2023-05-29T07:47:13;5.03;;;3.93;;
4652;SDS011;9900;48.738;9.306;2023-05-29T07:49:42;11.20;;;4.30;;
4652;SDS011;9900;48.738;9.306;2023-05-29T07:52:11;6.73;;;4.17;;
4652;SDS011;9900;48.738;9.306;2023-05-29T07:54:41;7.37;;;4.00;;
4652;SDS011;9900;48.738;9.306;2023-05-29T07:57:09;8.47;;;4.53;;
4652;SDS011;9900;48.738;9.306;2023-05-29T07:59:40;8.03;;;4.33;;
4652;SDS011;9900;48.738;9.306;2023-05-29T08:02:09;6.63;;;4.47;;
4652;SDS011;9900;48.738;9.306;2023-05-29T08:04:38;5.43;;;4.03;;
4652;SDS011;9900;48.738;9.306;2023-05-29T08:07:06;7.70;;;4.30;;
4652;SDS011;9900;48.738;9.306;2023-05-29T08:09:35;10.60;;;4.80;;
4652;SDS011;9900;48.738;9.306;2023-05-29T08:12:06;7.97;;;4.90;;
4652;SDS011;9900;48.738;9.306;2023-05-29T08:14:34;8.40;;;4.07;;
4652;SDS011;9900;48.738;9.306;2023-05-29T08:17:03;7.50;;;4.30;;
4652;SDS011;9900;48.738;9.306;2023-05-29T08:19:32;6.37;;;3.80;;
4652;SDS011;9900;48.738;9.306;2023-05-29T08:22:01;13.97;;;4.20;;
4652;SDS011;9900;48.738;9.306;2023-05-29T08:24:29;24.47;;;5.90;;
4652;SDS011;9900;48.738;9.306;2023-05-29T08:26:58;9.37;;;5.07;;
4652;SDS011;9900;48.738;9.306;2023-05-29T08:29:28;8.03;;;4.40;;
4652;SDS011;9900;48.738;9.306;2023-05-29T08:31:57;7.83;;;4.00;;
4652;SDS011;9900;48.738;9.306;2023-05-29T08:34:26;7.93;;;4.20;;
4652;SDS011;9900;48.738;9.306;2023-05-29T08:36:55;4.80;;;3.90;;
4652;SDS011;9900;48.738;9.306;2023-05-29T08:39:23;7.13;;;4.50;;
4652;SDS011;9900;48.738;9.306;2023-05-29T08:41:55;6.23;;;4.60;;
4652;SDS011;9900;48.738;9.306;2023-05-29T08:44:30;7.63;;;4.50;;
4652;SDS011;9900;48.738;9.306;2023-05-29T08:47:01;14.60;;;5.67;;
4652;SDS011;9900;48.738;9.306;2023-05-29T08:49:32;6.43;;;4.43;;
4652;SDS011;9900;48.738;9.306;2023-05-29T08:52:07;7.80;;;4.27;;
4652;SDS011;9900;48.738;9.306;2023-05-29T08:54:38;6.40;;;4.20;;
4652;SDS011;9900;48.738;9.306;2023-05-29T08:57:08;7.27;;;4.40;;
4652;SDS011;9900;48.738;9.306;2023-05-29T08:59:39;8.00;;;4.33;;
4652;SDS011;9900;48.738;9.306;2023-05-29T09:02:11;6.10;;;3.63;;
4652;SDS011;9900;48.738;9.306;2023-05-29T09:04:40;7.67;;;5.27;;
4652;SDS011;9900;48.738;9.306;2023-05-29T09:07:12;5.67;;;4.60;;
4652;SDS011;9900;48.738;9.306;2023-05-29T09:09:41;6.50;;;4.03;;
4652;SDS011;9900;48.738;9.306;2023-05-29T09:12:10;7.23;;;4.03;;
4652;SDS011;9900;48.738;9.306;2023-05-29T09:14:41;6.77;;;4.20;;
4652;SDS011;9900;48.738;9.306;2023-05-29T09:17:12;7.30;;;4.73;;
4652;SDS011;9900;48.738;9.306;2023-05-29T09:19:42;5.77;;;4.50;;
4652;SDS011;9900;48.738;9.306;2023-05-29T09:22:12;7.73;;;4.20;;
4652;SDS011;9900;48.738;9.306;2023-05-29T09:24:43;6.03;;;3.90;;
4652;SDS011;9900;48.738;9.306;2023-05-29T09:27:14;6.30;;;4.20;;
4652;SDS011;9900;48.738;9.306;2023-05-29T09:29:45;8.87;;;4.30;;
4652;SDS011;9900;48.738;9.306;2023-05-29T09:32:15;7.50;;;4.57;;
4652;SDS011;9900;48.738;9.306;2023-05-29T09:34:44;5.57;;;4.03;;
4652;SDS011;9900;48.738;9.306;2023-05-29T09:37:13;12.57;;;4.60;;
4652;SDS011;9900;48.738;9.306;2023-05-29T09:39:45;7.03;;;4.60;;
4652;SDS011;9900;48.738;9.306;2023-05-29T09:42:14;3.83;;;3.53;;
4652;SDS011;9900;48.738;9.306;2023-05-29T09:44:48;13.40;;;5.00;;
4652;SDS011;9900;48.738;9.306;2023-05-29T09:47:18;6.70;;;4.17;;
4652;SDS011;9900;48.738;9.306;2023-05-29T09:49:47;4.23;;;3.83;;
4652;SDS011;9900;48.738;9.306;2023-05-29T09:52:21;6.27;;;4.00;;
4652;SDS011;9900;48.738;9.306;2023-05-29T09:54:51;8.43;;;4.63;;
4652;SDS011;9900;48.738;9.306;2023-05-29T09:57:20;7.50;;;4.30;;
4652;SDS011;9900;48.738;9.306;2023-05-29T09:59:53;6.77;;;4.57;;
4652;SDS011;9900;48.738;9.306;2023-05-29T10:02:23;7.07;;;4.43;;
4652;SDS011;9900;48.738;9.306;2023-05-29T10:04:52;8.13;;;4.77;;
4652;SDS011;9900;48.738;9.306;2023-05-29T10:07:22;5.63;;;3.50;;
4652;SDS011;9900;48.738;9.306;2023-05-29T10:09:58;4.20;;;3.20;;
4652;SDS011;9900;48.738;9.306;2023-05-29T10:12:28;4.60;;;3.83;;
4652;SDS011;9900;48.738;9.306;2023-05-29T10:14:59;6.63;;;3.70;;
4652;SDS011;9900;48.738;9.306;2023-05-29T10:17:33;8.13;;;3.70;;
4652;SDS011;9900;48.738;9.306;2023-05-29T10:20:02;4.70;;;3.23;;
4652;SDS011;9900;48.738;9.306;2023-05-29T10:22:35;5.53;;;3.33;;
4652;SDS011;9900;48.738;9.306;2023-05-29T10:25:08;4.93;;;3.77;;
4652;SDS011;9900;48.738;9.306;2023-05-29T10:27:38;6.70;;;3.93;;
4652;SDS011;9900;48.738;9.306;2023-05-29T10:30:09;6.30;;;3.90;;
4652;SDS011;9900;48.738;9.306;2023-05-29T10:32:47;6.87;;;4.10;;
4652;SDS011;9900;48.738;9.306;2023-05-29T10:35:31;8.00;;;3.93;;
4652;SDS011;9900;48.738;9.306;2023-05-29T10:38:10;9.13;;;3.80;;
4652;SDS011;9900;48.738;9.306;2023-05-29T10:40:40;5.30;;;3.10;;
4652;SDS011;9900;48.738;9.306;2023-05-29T10:43:09;5.70;;;3.53;;
4652;SDS011;9900;48.738;9.306;2023-05-29T10:45:59;7.73;;;3.77;;
4652;SDS011;9900;48.738;9.306;2023-05-29T10:48:39;9.20;;;3.90;;
4652;SDS011;9900;48.738;9.306;2023-05-29T10:51:26;4.50;;;3.43;;
4652;SDS011;9900;48.738;9.306;2023-05-29T10:53:56;3.80;;;3.43;;
4652;SDS011;9900;48.738;9.306;2023-05-29T10:56:27;9.23;;;3.50;;
4652;SDS011;9900;48.738;9.306;2023-05-29T10:58:58;6.80;;;3.63;;
4652;SDS011;9900;48.738;9.306;2023-05-29T11:01:30;8.80;;;3.90;;
4652;SDS011;9900;48.738;9.306;2023-05-29T11:06:54;5.87;;;3.17;;
4652;SDS011;9900;48.738;9.306;2023-05-29T11:09:27;7.00;;;3.67;;
4652;SDS011;9900;48.738;9.306;2023-05-29T11:12:16;10.43;;;3.67;;
4652;SDS011;9900;48.738;9.306;2023-05-29T11:14:53;10.13;;;3.73;;
4652;SDS011;9900;48.738;9.306;2023-05-29T11:17:30;6.33;;;3.17;;
4652;SDS011;9900;48.738;9.306;2023-05-29T11:20:03;4.73;;;3.10;;
4652;SDS011;9900;48.738;9.306;2023-05-29T11:22:43;7.47;;;3.60;;
4652;SDS011;9900;48.738;9.306;2023-05-29T11:25:21;10.80;;;3.50;;
4652;SDS011;9900;48.738;9.306;2023-05-29T11:27:49;7.27;;;3.80;;
4652;SDS011;9900;48.738;9.306;2023-05-29T11:30:19;8.67;;;3.63;;
4652;SDS011;9900;48.738;9.306;2023-05-29T11:32:50;4.00;;;3.10;;
4652;SDS011;9900;48.738;9.306;2023-05-29T11:35:21;5.13;;;3.40;;
4652;SDS011;9900;48.738;9.306;2023-05-29T11:37:50;4.07;;;3.33;;
4652;SDS011;9900;48.738;9.306;2023-05-29T11:40:19;6.10;;;3.20;;
4652;SDS011;9900;48.738;9.306;2023-05-29T11:42:48;6.37;;;3.40;;
4652;SDS011;9900;48.738;9.306;2023-05-29T11:45:17;7.50;;;6.33;;
4652;SDS011;9900;48.738;9.306;2023-05-29T11:47:55;7.60;;;4.20;;
4652;SDS011;9900;48.738;9.306;2023-05-29T11:50:25;5.87;;;3.93;;
4652;SDS011;9900;48.738;9.306;2023-05-29T11:52:55;3.30;;;2.97;;
4652;SDS011;9900;48.738;9.306;2023-05-29T11:55:25;3.10;;;2.80;;
4652;SDS011;9900;48.738;9.306;2023-05-29T11:57:56;6.07;;;3.57;;
4652;SDS011;9900;48.738;9.306;2023-05-29T12:00:25;6.53;;;3.13;;
4652;SDS011;9900;48.738;9.306;2023-05-29T12:02:58;5.70;;;3.00;;
4652;SDS011;9900;48.738;9.306;2023-05-29T12:05:31;6.10;;;3.27;;
4652;SDS011;9900;48.738;9.306;2023-05-29T12:08:00;5.70;;;3.23;;
4652;SDS011;9900;48.738;9.306;2023-05-29T12:10:31;3.80;;;3.17;;
4652;SDS011;9900;48.738;9.306;2023-05-29T12:13:00;8.67;;;3.30;;
4652;SDS011;9900;48.738;9.306;2023-05-29T12:15:29;7.70;;;2.70;;
4652;SDS011;9900;48.738;9.306;2023-05-29T12:17:59;3.20;;;2.83;;
4652;SDS011;9900;48.738;9.306;2023-05-29T12:20:30;3.23;;;2.87;;
4652;SDS011;9900;48.738;9.306;2023-05-29T12:22:58;8.40;;;3.93;;
4652;SDS011;9900;48.738;9.306;2023-05-29T12:25:28;7.33;;;3.93;;
4652;SDS011;9900;48.738;9.306;2023-05-29T12:27:58;4.23;;;2.73;;
4652;SDS011;9900;48.738;9.306;2023-05-29T12:30:27;3.03;;;2.60;;
4652;SDS011;9900;48.738;9.306;2023-05-29T12:33:01;4.87;;;3.57;;
4652;SDS011;9900;48.738;9.306;2023-05-29T12:35:30;4.70;;;3.40;;
4652;SDS011;9900;48.738;9.306;2023-05-29T12:38:00;4.90;;;3.20;;
4652;SDS011;9900;48.738;9.306;2023-05-29T12:40:30;6.23;;;3.57;;
4652;SDS011;9900;48.738;9.306;2023-05-29T12:43:01;3.87;;;3.17;;
4652;SDS011;9900;48.738;9.306;2023-05-29T12:45:31;4.83;;;2.87;;
4652;SDS011;9900;48.738;9.306;2023-05-29T12:48:02;5.67;;;3.53;;
4652;SDS011;9900;48.738;9.306;2023-05-29T12:50:33;6.20;;;3.70;;
4652;SDS011;9900;48.738;9.306;2023-05-29T12:53:05;4.00;;;2.87;;
4652;SDS011;9900;48.738;9.306;2023-05-29T12:55:35;6.10;;;3.97;;
4652;SDS011;9900;48.738;9.306;2023-05-29T12:58:06;3.93;;;2.77;;
4652;SDS011;9900;48.738;9.306;2023-05-29T13:00:37;3.43;;;2.70;;
4652;SDS011;9900;48.738;9.306;2023-05-29T13:03:08;4.90;;;2.80;;
4652;SDS011;9900;48.738;9.306;2023-05-29T13:05:38;3.37;;;3.07;;
4652;SDS011;9900;48.738;9.306;2023-05-29T13:08:06;3.37;;;2.87;;
4652;SDS011;9900;48.738;9.306;2023-05-29T13:10:35;4.53;;;3.30;;
4652;SDS011;9900;48.738;9.306;2023-05-29T13:13:04;4.87;;;2.87;;
4652;SDS011;9900;48.738;9.306;2023-05-29T13:15:33;6.13;;;3.27;;
4652;SDS011;9900;48.738;9.306;2023-05-29T13:18:02;5.33;;;3.07;;
4652;SDS011;9900;48.738;9.306;2023-05-29T13:20:32;5.77;;;5.20;;
4652;SDS011;9900;48.738;9.306;2023-05-29T13:23:01;8.47;;;6.43;;
4652;SDS011;9900;48.738;9.306;2023-05-29T13:25:29;3.03;;;2.73;;
4652;SDS011;9900;48.738;9.306;2023-05-29T13:27:58;3.83;;;3.37;;
4652;SDS011;9900;48.738;9.306;2023-05-29T13:30:27;5.10;;;3.70;;
4652;SDS011;9900;48.738;9.306;2023-05-29T13:32:55;8.07;;;3.60;;
4652;SDS011;9900;48.738;9.306;2023-05-29T13:35:24;5.30;;;3.47;;
4652;SDS011;9900;48.738;9.306;2023-05-29T13:37:54;4.37;;;2.90;;
4652;SDS011;9900;48.738;9.306;2023-05-29T13:40:23;5.77;;;2.90;;
4652;SDS011;9900;48.738;9.306;2023-05-29T13:42:53;3.00;;;2.73;;
4652;SDS011;9900;48.738;9.306;2023-05-29T13:45:21;4.90;;;3.37;;
4652;SDS011;9900;48.738;9.306;2023-05-29T13:47:50;3.90;;;3.60;;
4652;SDS011;9900;48.738;9.306;2023-05-29T13:50:19;4.93;;;2.73;;
4652;SDS011;9900;48.738;9.306;2023-05-29T13:52:49;9.30;;;3.53;;
4652;SDS011;9900;48.738;9.306;2023-05-29T13:55:19;5.43;;;3.53;;
4652;SDS011;9900;48.738;9.306;2023-05-29T13:57:48;10.20;;;7.67;;
4652;SDS011;9900;48.738;9.306;2023-05-29T14:00:17;5.27;;;3.67;;
4652;SDS011;9900;48.738;9.306;2023-05-29T14:02:46;7.43;;;3.53;;
4652;SDS011;9900;48.738;9.306;2023-05-29T14:05:15;5.43;;;3.07;;
4652;SDS011;9900;48.738;9.306;2023-05-29T14:07:44;6.70;;;3.80;;
4652;SDS011;9900;48.738;9.306;2023-05-29T14:10:12;5.40;;;3.50;;
4652;SDS011;9900;48.738;9.306;2023-05-29T14:12:42;6.67;;;4.20;;
4652;SDS011;9900;48.738;9.306;2023-05-29T14:15:11;6.33;;;3.40;;
4652;SDS011;9900;48.738;9.306;2023-05-29T14:17:40;4.50;;;3.57;;
4652;SDS011;9900;48.738;9.306;2023-05-29T14:20:09;4.00;;;3.43;;
4652;SDS011;9900;48.738;9.306;2023-05-29T14:22:38;9.30;;;4.00;;
4652;SDS011;9900;48.738;9.306;2023-05-29T14:25:07;5.77;;;3.70;;
4652;SDS011;9900;48.738;9.306;2023-05-29T14:27:37;4.20;;;3.73;;
4652;SDS011;9900;48.738;9.306;2023-05-29T14:30:08;5.97;;;3.70;;
4652;SDS011;9900;48.738;9.306;2023-05-29T14:32:37;5.37;;;3.40;;
4652;SDS011;9900;48.738;9.306;2023-05-29T14:35:06;4.40;;;3.67;;
4652;SDS011;9900;48.738;9.306;2023-05-29T14:37:35;5.73;;;3.80;;
4652;SDS011;9900;48.738;9.306;2023-05-29T14:40:04;4.00;;;3.50;;
4652;SDS011;9900;48.738;9.306;2023-05-29T14:42:34;5.40;;;3.50;;
4652;SDS011;9900;48.738;9.306;2023-05-29T14:45:03;5.07;;;4.37;;
4652;SDS011;9900;48.738;9.306;2023-05-29T14:47:34;5.57;;;3.50;;
4652;SDS011;9900;48.738;9.306;2023-05-29T14:50:03;4.83;;;3.43;;
4652;SDS011;9900;48.738;9.306;2023-05-29T14:52:32;3.60;;;3.30;;
4652;SDS011;9900;48.738;9.306;2023-05-29T14:55:01;6.20;;;3.33;;
4652;SDS011;9900;48.738;9.306;2023-05-29T14:57:32;8.13;;;3.97;;
4652;SDS011;9900;48.738;9.306;2023-05-29T15:00:02;3.70;;;3.03;;
4652;SDS011;9900;48.738;9.306;2023-05-29T15:02:34;7.30;;;3.50;;
4652;SDS011;9900;48.738;9.306;2023-05-29T15:05:03;6.53;;;3.07;;
4652;SDS011;9900;48.738;9.306;2023-05-29T15:07:33;12.83;;;4.00;;
4652;SDS011;9900;48.738;9.306;2023-05-29T15:10:02;34.97;;;4.13;;
4652;SDS011;9900;48.738;9.306;2023-05-29T15:12:32;11.70;;;3.80;;
4652;SDS011;9900;48.738;9.306;2023-05-29T15:15:01;9.37;;;3.73;;
4652;SDS011;9900;48.738;9.306;2023-05-29T15:17:30;33.37;;;5.10;;
4652;SDS011;9900;48.738;9.306;2023-05-29T15:20:00;5.70;;;3.40;;
4652;SDS011;9900;48.738;9.306;2023-05-29T15:22:30;6.00;;;3.47;;
4652;SDS011;9900;48.738;9.306;2023-05-29T15:24:59;10.73;;;5.47;;
4652;SDS011;9900;48.738;9.306;2023-05-29T15:27:28;4.83;;;3.43;;
4652;SDS011;9900;48.738;9.306;2023-05-29T15:30:07;8.73;;;3.00;;
4652;SDS011;9900;48.738;9.306;2023-05-29T15:32:37;5.20;;;3.80;;